Latest Weather Observations for Darwin Harbour

IDD60801

Issued at 5:01 am CST Saturday 25 February 2017 (issued every 30 minutes, with the page automatically refreshed every 10 minutes)

About weather observations | Map of weather stations | Latest weather observations for NT | Other Formats
Station Details ID: 014072 Name: DARWIN NTC AWS Lat: -12.47 Lon: 130.85 Height: 0.0 m
Data from the previous 72 hours. | See also: Recent months for locations in Northern Territory
Date/Time
CST
Temp
°C
App
Temp
°C
Dew
Point
°C
Rel
Hum
%
Delta-T
°C
Wind Press
QNH
hPa
Press
MSL
hPa
Rain since
9am
mm
Dir  Spd
km/h
Gust
km/h
Spd
kts
Gust
kts
25/05:00am - - - - - ENE 4 7 2 4 1008.8 1008.7 -
25/04:30am - - - - - NNW 4 4 2 2 1008.5 1008.4 -
25/04:00am - - - - - WNW 2 2 1 1 1008.3 1008.2 -
25/03:30am - - - - - N 4 6 2 3 1008.2 1008.1 -
25/03:00am - - - - - NNW 4 7 2 4 1008.5 1008.4 -
25/02:30am - - - - - NNW 6 7 3 4 1008.8 1008.7 -
25/02:00am - - - - - NW 6 9 3 5 1009.3 1009.2 -
25/01:30am - - - - - NW 4 7 2 4 1009.7 1009.6 -
25/01:00am - - - - - NW 7 13 4 7 1009.9 1009.8 -
25/12:30am - - - - - NW 6 9 3 5 1010.0 1009.9 -
25/12:00am - - - - - NW 6 7 3 4 1010.2 1010.1 -
 
Date/Time
CST
Temp
°C
App
Temp
°C
Dew
Point
°C
Rel
Hum
%
Delta-T
°C
Wind Press
QNH
hPa
Press
MSL
hPa
Rain since
9am
mm
Dir  Spd
km/h
Gust
km/h
Spd
kts
Gust
kts
24/11:30pm - - - - - NW 6 9 3 5 1010.4 1010.3 -
24/11:00pm - - - - - NW 7 13 4 7 1010.1 1010.0 -
24/10:30pm - - - - - NW 7 13 4 7 1009.8 1009.7 -
24/10:00pm - - - - - NW 7 15 4 8 1009.4 1009.3 -
24/09:30pm - - - - - NNW 7 13 4 7 1009.4 1009.3 -
24/09:00pm - - - - - N 9 17 5 9 1009.2 1009.1 -
24/08:30pm - - - - - N 11 19 6 10 1009.0 1008.9 -
24/08:00pm - - - - - N 11 19 6 10 1008.7 1008.6 -
24/07:30pm - - - - - NNW 9 15 5 8 1008.9 1008.8 -
24/07:00pm - - - - - NW 9 20 5 11 1008.7 1008.6 -
24/06:30pm - - - - - NW 9 17 5 9 1008.4 1008.3 -
24/06:00pm - - - - - NW 13 20 7 11 1008.0 1007.9 -
24/05:30pm - - - - - NW 13 20 7 11 1007.8 1007.7 -
24/05:00pm - - - - - NW 13 22 7 12 1007.9 1007.8 -
24/04:30pm - - - - - WNW 15 22 8 12 1007.5 1007.4 -
24/04:00pm - - - - - NW 7 15 4 8 1007.8 1007.7 -
24/03:30pm - - - - - NW 11 20 6 11 1007.5 1007.4 -
24/03:00pm - - - - - NW 7 19 4 10 1008.0 1007.9 -
24/02:30pm - - - - - NNW 7 17 4 9 1008.4 1008.3 -
24/02:00pm - - - - - NW 11 15 6 8 1008.6 1008.5 -
24/01:30pm - - - - - WNW 7 17 4 9 1009.2 1009.1 -
24/01:00pm - - - - - NNW 9 20 5 11 1009.5 1009.4 -
24/12:30pm - - - - - WNW 9 17 5 9 1010.2 1010.1 -
24/12:00pm - - - - - WNW 6 11 3 6 1010.5 1010.4 -
24/11:30am - - - - - NW 7 11 4 6 1010.8 1010.7 -
24/11:00am - - - - - WNW 9 17 5 9 1010.9 1010.8 -
24/10:30am - - - - - NW 7 13 4 7 1011.2 1011.1 -
24/10:00am - - - - - N 4 13 2 7 1010.9 1010.8 -
24/09:30am - - - - - NNW 2 7 1 4 1011.0 1010.9 -
24/09:00am - - - - - NNW 6 11 3 6 1010.7 1010.6 -
24/08:30am - - - - - WNW 7 11 4 6 1010.5 1010.4 -
24/08:00am - - - - - W 9 11 5 6 1010.2 1010.1 -
24/07:30am - - - - - WNW 6 9 3 5 1010.1 1010.0 -
24/07:00am - - - - - WNW 7 11 4 6 1009.8 1009.7 -
24/06:30am - - - - - WNW 7 17 4 9 1009.3 1009.2 -
24/06:00am - - - - - WNW 7 13 4 7 1008.9 1008.8 -
24/05:30am - - - - - WNW 20 24 11 13 1008.1 1008.0 -
24/05:00am - - - - - WNW 19 26 10 14 1008.0 1007.9 -
24/04:30am - - - - - WNW 15 22 8 12 1008.2 1008.1 -
24/04:00am - - - - - WNW 17 26 9 14 1007.9 1007.8 -
24/03:30am - - - - - NW 17 30 9 16 1007.7 1007.6 -
24/03:00am - - - - - WNW 19 32 10 17 1007.9 1007.8 -
24/02:30am - - - - - NW 15 24 8 13 1008.1 1008.0 -
24/02:00am - - - - - NW 19 28 10 15 1008.1 1008.0 -
24/01:30am - - - - - NW 15 24 8 13 1008.3 1008.2 -
24/01:00am - - - - - WNW 17 24 9 13 1008.8 1008.7 -
24/12:30am - - - - - WNW 15 20 8 11 1009.0 1008.9 -
24/12:00am - - - - - WNW 13 20 7 11 1009.0 1008.9 -
 
Date/Time
CST
Temp
°C
App
Temp
°C
Dew
Point
°C
Rel
Hum
%
Delta-T
°C
Wind Press
QNH
hPa
Press
MSL
hPa
Rain since
9am
mm
Dir  Spd
km/h
Gust
km/h
Spd
kts
Gust
kts
23/11:30pm - - - - - NW 11 19 6 10 1009.3 1009.2 -
23/11:00pm - - - - - WNW 11 17 6 9 1009.1 1009.0 -
23/10:30pm - - - - - W 13 20 7 11 1008.6 1008.5 -
23/10:00pm - - - - - WNW 13 19 7 10 1008.4 1008.3 -
23/09:30pm - - - - - W 13 19 7 10 1008.1 1008.0 -
23/09:00pm - - - - - W 15 20 8 11 1007.7 1007.6 -
23/08:30pm - - - - - W 13 19 7 10 1007.5 1007.4 -
23/08:00pm - - - - - W 15 20 8 11 1007.2 1007.1 -
23/07:30pm - - - - - WNW 19 24 10 13 1006.9 1006.8 -
23/07:00pm - - - - - WNW 17 22 9 12 1006.6 1006.5 -
23/06:30pm - - - - - W 15 20 8 11 1006.3 1006.2 -
23/06:00pm - - - - - W 15 20 8 11 1005.9 1005.8 -
23/05:30pm - - - - - W 17 24 9 13 1005.7 1005.6 -
23/05:00pm - - - - - W 17 22 9 12 1005.5 1005.4 -
23/04:30pm - - - - - W 15 20 8 11 1005.4 1005.3 -
23/04:00pm - - - - - WNW 15 22 8 12 1005.4 1005.3 -
23/03:30pm - - - - - WNW 13 20 7 11 1005.6 1005.5 -
23/03:00pm - - - - - WNW 13 20 7 11 1005.7 1005.6 -
23/02:30pm - - - - - WNW 11 17 6 9 1006.1 1006.0 -
23/02:00pm - - - - - WNW 11 15 6 8 1006.6 1006.5 -
23/01:30pm - - - - - W 6 9 3 5 1006.9 1006.8 -
23/01:00pm - - - - - W 6 11 3 6 1007.4 1007.3 -
23/12:30pm - - - - - W 6 9 3 5 1008.1 1008.0 -
23/12:00pm - - - - - W 6 11 3 6 1008.5 1008.4 -
23/11:30am - - - - - W 4 6 2 3 1008.9 1008.8 -
23/11:00am - - - - - WSW 6 7 3 4 1009.3 1009.2 -
23/10:30am - - - - - W 4 6 2 3 1009.6 1009.5 -
23/10:00am - - - - - WSW 9 11 5 6 1009.6 1009.5 -
23/09:30am - - - - - W 7 9 4 5 1009.6 1009.5 -
23/09:00am - - - - - WSW 7 11 4 6 1009.7 1009.6 -
23/08:30am - - - - - WSW 9 11 5 6 1009.5 1009.4 -
23/08:00am - - - - - WSW 9 13 5 7 1009.2 1009.1 -
23/07:30am - - - - - WSW 9 13 5 7 1008.9 1008.8 -
23/07:00am - - - - - WSW 9 13 5 7 1008.7 1008.6 -
23/06:30am - - - - - WSW 11 15 6 8 1008.6 1008.5 -
23/06:00am - - - - - WSW 11 15 6 8 1008.3 1008.2 -
23/05:30am - - - - - W 11 15 6 8 1008.2 1008.1 -
23/05:00am - - - - - WSW 9 13 5 7 1008.1 1008.0 -
23/04:30am - - - - - WSW 11 13 6 7 1008.0 1007.9 -
23/04:00am - - - - - WSW 11 13 6 7 1007.8 1007.7 -
23/03:30am - - - - - W 11 15 6 8 1007.6 1007.5 -
23/03:00am - - - - - W 9 13 5 7 1007.5 1007.4 -
23/02:30am - - - - - W 11 15 6 8 1007.6 1007.5 -
23/02:00am - - - - - W 11 15 6 8 1008.0 1007.9 -
23/01:30am - - - - - W 11 15 6 8 1008.6 1008.5 -
23/01:00am - - - - - W 11 17 6 9 1009.0 1008.9 -
23/12:30am - - - - - W 11 15 6 8 1009.5 1009.4 -
23/12:00am - - - - - W 11 17 6 9 1009.9 1009.8 -
 
Date/Time
CST
Temp
°C
App
Temp
°C
Dew
Point
°C
Rel
Hum
%
Delta-T
°C
Wind Press
QNH
hPa
Press
MSL
hPa
Rain since
9am
mm
Dir  Spd
km/h
Gust
km/h
Spd
kts
Gust
kts
22/11:30pm - - - - - W 11 13 6 7 1010.2 1010.1 -
22/11:00pm - - - - - W 11 15 6 8 1010.0 1009.9 -
22/10:30pm - - - - - W 13 17 7 9 1009.9 1009.8 -
22/10:00pm - - - - - WSW 13 17 7 9 1009.7 1009.6 -
22/09:30pm - - - - - WSW 11 17 6 9 1009.6 1009.5 -
22/09:00pm - - - - - WSW 13 17 7 9 1009.3 1009.2 -
22/08:30pm - - - - - W 17 20 9 11 1009.0 1008.9 -
22/08:00pm - - - - - W 15 22 8 12 1008.6 1008.5 -
22/07:30pm - - - - - W 19 24 10 13 1008.2 1008.1 -
22/07:00pm - - - - - W 20 26 11 14 1007.9 1007.8 -
22/06:30pm - - - - - W 22 30 12 16 1007.6 1007.5 -
22/06:00pm - - - - - W 20 26 11 14 1007.2 1007.1 -
22/05:30pm - - - - - W 20 28 11 15 1007.0 1006.9 -
22/05:00pm - - - - - W 20 30 11 16 1007.1 1007.0 -
22/04:30pm - - - - - W 24 30 13 16 1007.0 1006.9 -
22/04:00pm - - - - - WNW 20 26 11 14 1007.2 1007.1 -
22/03:30pm - - - - - WNW 20 26 11 14 1007.3 1007.2 -
22/03:00pm - - - - - WNW 20 24 11 13 1007.5 1007.4 -
22/02:30pm - - - - - W 19 22 10 12 1007.7 1007.6 -
22/02:00pm - - - - - W 15 22 8 12 1008.2 1008.1 -
22/01:30pm - - - - - W 13 20 7 11 1008.6 1008.5 -
22/01:00pm - - - - - W 17 22 9 12 1009.1 1009.0 -
22/12:30pm - - - - - WNW 13 19 7 10 1009.6 1009.5 -
22/12:00pm - - - - - WNW 9 17 5 9 1010.0 1009.9 -
22/11:30am - - - - - W 7 11 4 6 1010.4 1010.3 -
22/11:00am - - - - - W 7 9 4 5 1010.6 1010.5 -
22/10:30am - - - - - W 7 9 4 5 1010.8 1010.7 -
22/10:00am - - - - - WSW 9 13 5 7 1010.8 1010.7 -
22/09:30am - - - - - W 11 15 6 8 1010.9 1010.8 -
22/09:00am - - - - - WSW 7 11 4 6 1011.2 1011.1 -
22/08:30am - - - - - WSW 7 11 4 6 1011.0 1010.9 -
22/08:00am - - - - - WSW 9 13 5 7 1010.7 1010.6 -
22/07:30am - - - - - WSW 7 9 4 5 1010.3 1010.2 -
22/07:00am - - - - - WSW 7 9 4 5 1010.1 1010.0 -
22/06:30am - - - - - WSW 9 11 5 6 1009.8 1009.7 -
22/06:00am - - - - - W 6 9 3 5 1009.5 1009.4 -
22/05:30am - - - - - W 7 11 4 6 1009.3 1009.2 -

Other Formats:

Comma delimited format used in spreadsheet applications
http://www.bom.gov.au/fwo/IDD60801/IDD60801.95122.axf

JavaScript Object Notation format (JSON) in row-major order
http://www.bom.gov.au/fwo/IDD60801/IDD60801.95122.json